Terminal Aerodrome Forecast
Issued by NWS Sioux Falls, SD

Home | Current Version | Previous Version | Graphics & Text | Print | Product List | Glossary On
Versions: 1 2 3 4 5 6 7 8 9 10 11 12 13 14 15 16 17 18
000
FTUS43 KFSD 132329
TAFSUX
TAF
KSUX 132329Z 1400/1424 05005KT P6SM FEW200
     FM140700 06005KT P6SM SCT030
     FM140900 06006KT P6SM OVC015
     FM141200 06005KT 6SM -SHRA OVC009
     FM142000 35003KT 6SM -SHRA OVC010
     FM142200 31003KT 6SM -SHRA OVC010=

USA.gov is the U.S. government's official web portal to all federal, state and local government web resources and services.